Time;durP1;ratioP1;P1;durP2;ratioP2;P2;SDS_P1;SDS_P2;PMS_P1;PMS_P2;Temp;Humidity;BMP_temperature;BMP_pressure;BME280_temperature;BME280_humidity;BME280_pressure;Samples;Min_cycle;Max_cycle;Signal;HPM_P1;HPM_P2
2022/01/13 00:01:11;;;;;;;14.40;6.95;;;-1.20;79.80;;;;;;1914878;75;21008;-44
2022/01/13 00:03:41;;;;;;;13.98;6.47;;;-1.20;81.10;;;;;;1914865;75;21028;-44
2022/01/13 00:06:10;;;;;;;11.22;6.72;;;-1.20;79.60;;;;;;1914999;75;21012;-45
2022/01/13 00:08:39;;;;;;;8.68;6.35;;;-1.10;80.60;;;;;;1914833;75;21125;-44
2022/01/13 00:11:09;;;;;;;13.43;6.55;;;-1.20;79.30;;;;;;1914855;75;21032;-45
2022/01/13 00:13:49;;;;;;;10.95;7.70;;;-1.10;81.20;;;;;;1914951;75;21028;-44
2022/01/13 00:21:52;;;;;;;12.40;5.20;;;-1.00;80.70;;;;;;1914968;75;21125;-44
2022/01/13 00:24:18;;;;;;;9.20;5.42;;;-0.90;82.20;;;;;;1914246;75;21028;-45
2022/01/13 00:26:48;;;;;;;10.55;5.60;;;-0.90;80.20;;;;;;1914941;75;21052;-45
2022/01/13 00:29:21;;;;;;;8.98;5.55;;;-0.90;80.60;;;;;;1914779;75;21032;-45
2022/01/13 00:31:48;;;;;;;8.35;6.80;;;-1.00;79.20;;;;;;1914619;75;21134;-44
2022/01/13 00:34:17;;;;;;;7.17;5.42;;;-1.00;79.90;;;;;;1914803;75;21036;-44
2022/01/13 00:36:47;;;;;;;12.68;7.20;;;-1.00;78.70;;;;;;1914902;75;21075;-45
2022/01/13 00:39:16;;;;;;;6.53;4.03;;;-1.00;80.40;;;;;;1922280;74;21115;-44
2022/01/13 00:41:46;;;;;;;11.78;5.35;;;-1.10;78.60;;;;;;1931166;74;21109;-45
2022/01/13 00:44:19;;;;;;;6.65;4.40;;;-1.10;79.40;;;;;;1931278;74;21020;-45
2022/01/13 00:46:48;;;;;;;13.48;7.80;;;-1.20;77.30;;;;;;1930976;74;21110;-44
2022/01/13 00:49:18;;;;;;;7.53;4.75;;;-1.20;79.70;;;;;;1931389;74;21105;-44
2022/01/13 00:51:47;;;;;;;9.10;5.90;;;-1.20;79.20;;;;;;1931379;74;21100;-44
2022/01/13 00:54:16;;;;;;;10.48;6.10;;;-1.10;80.20;;;;;;1931217;74;21050;-44
2022/01/13 00:56:46;;;;;;;4.78;3.80;;;-1.10;81.40;;;;;;1931391;74;21027;-44
2022/01/13 00:59:16;;;;;;;18.32;6.62;;;-1.10;80.80;;;;;;1931217;74;21531;-44
2022/01/13 01:01:48;;;;;;;9.68;7.30;;;-1.00;80.00;;;;;;1931300;74;21073;-44
2022/01/13 01:04:18;;;;;;;9.08;6.35;;;-1.00;81.90;;;;;;1931305;74;21113;-44
2022/01/13 01:06:49;;;;;;;4.28;3.30;;;-0.90;82.70;;;;;;1931343;74;21113;-45
2022/01/13 01:09:30;;;;;;;11.33;7.50;;;-0.90;81.70;;;;;;1931333;74;21032;-44
2022/01/13 01:11:52;;;;;;;9.88;4.60;;;-0.80;82.10;;;;;;1929283;74;21032;-44
2022/01/13 01:14:21;;;;;;;14.63;8.63;;;-0.80;79.10;;;;;;1931318;74;21481;-45
2022/01/13 01:16:50;;;;;;;12.82;6.92;;;-0.90;80.60;;;;;;1931352;74;21105;-45
2022/01/13 01:19:26;;;;;;;11.08;7.72;;;-0.90;79.10;;;;;;1931142;74;21032;-44
2022/01/13 01:22:15;;;;;;;5.62;3.95;;;-1.00;81.50;;;;;;1930288;74;21031;-46
2022/01/13 01:26:56;;;;;;;18.95;7.28;;;-1.00;82.30;;;;;;1931299;74;21047;-44
2022/01/13 01:29:28;;;;;;;5.47;3.30;;;-1.00;82.00;;;;;;1930888;74;21027;-44
2022/01/13 01:31:55;;;;;;;13.25;7.22;;;-0.90;78.00;;;;;;1930580;74;21044;-46
2022/01/13 01:37:19;;;;;;;9.13;6.58;;;-1.10;81.30;;;;;;1931176;74;21051;-44
2022/01/13 01:39:39;;;;;;;8.70;5.08;;;-1.20;81.10;;;;;;1923138;74;21075;-44
2022/01/13 01:42:09;;;;;;;9.98;6.97;;;-1.20;79.60;;;;;;1914894;75;21024;-45
2022/01/13 01:44:42;;;;;;;10.90;7.37;;;-1.30;79.30;;;;;;1914884;75;21157;-44
2022/01/13 01:47:13;;;;;;;14.28;7.30;;;-1.30;81.10;;;;;;1914437;75;21476;-44
2022/01/13 01:49:48;;;;;;;11.85;7.35;;;-1.40;80.60;;;;;;1914956;75;21028;-44
2022/01/13 01:52:18;;;;;;;13.30;7.78;;;-1.40;80.40;;;;;;1914936;75;21032;-44
2022/01/13 01:54:48;;;;;;;13.55;8.10;;;-1.30;81.30;;;;;;1914973;75;21087;-45
2022/01/13 01:57:19;;;;;;;12.73;6.37;;;-1.30;81.70;;;;;;1914993;75;21102;-44
2022/01/13 01:59:49;;;;;;;11.70;7.83;;;-1.20;82.10;;;;;;1914872;75;21008;-44
2022/01/13 02:02:18;;;;;;;13.28;7.85;;;-1.20;82.80;;;;;;1915067;75;21458;-45
2022/01/13 02:04:48;;;;;;;11.83;6.92;;;-1.10;82.70;;;;;;1914943;75;21036;-44
2022/01/13 02:07:17;;;;;;;4.70;2.98;;;-1.00;79.00;;;;;;1914879;75;21028;-45
2022/01/13 02:09:51;;;;;;;8.60;5.00;;;-1.10;78.80;;;;;;1914941;75;21036;-45
2022/01/13 02:12:40;;;;;;;10.25;6.85;;;-1.20;78.20;;;;;;1914451;75;21032;-44
2022/01/13 02:17:42;;;;;;;10.50;7.92;;;-1.40;81.20;;;;;;1914849;75;21118;-45
2022/01/13 02:20:19;;;;;;;11.85;7.65;;;-1.30;81.50;;;;;;1914762;75;21024;-44
2022/01/13 02:22:48;;;;;;;8.90;6.60;;;-1.30;80.30;;;;;;1914956;75;21122;-45
2022/01/13 02:25:18;;;;;;;13.30;8.68;;;-1.40;79.70;;;;;;1914787;75;21125;-45
2022/01/13 02:27:47;;;;;;;6.90;4.72;;;-1.40;80.30;;;;;;1914804;75;21032;-45
2022/01/13 02:30:17;;;;;;;13.88;8.08;;;-1.40;79.80;;;;;;1914741;75;21059;-44
2022/01/13 02:32:46;;;;;;;9.18;6.28;;;-1.40;81.80;;;;;;1914876;75;21173;-44
2022/01/13 02:35:15;;;;;;;16.48;7.33;;;-1.40;80.50;;;;;;1914762;75;21008;-44
2022/01/13 02:37:45;;;;;;;14.83;8.80;;;-1.50;80.20;;;;;;1914793;75;21167;-44
2022/01/13 02:40:14;;;;;;;9.78;5.97;;;-1.50;80.70;;;;;;1914749;74;21044;-45
2022/01/13 02:42:44;;;;;;;11.03;7.42;;;-1.50;82.20;;;;;;1914834;75;21024;-44
2022/01/13 02:45:20;;;;;;;16.52;9.13;;;-1.40;81.80;;;;;;1914761;75;21008;-45
2022/01/13 02:48:10;;;;;;;9.75;6.17;;;-1.40;80.50;;;;;;1914909;75;21036;-45
2022/01/13 02:50:18;;;;;;;20.45;10.15;;;-1.40;80.50;;;;;;1909676;75;21098;-44
2022/01/13 02:52:48;;;;;;;6.50;5.62;;;-1.40;80.90;;;;;;1914900;75;21095;-45
2022/01/13 02:55:17;;;;;;;13.50;8.43;;;-1.40;79.80;;;;;;1914843;75;21149;-45
2022/01/13 02:57:46;;;;;;;12.30;8.25;;;-1.60;79.50;;;;;;1914820;75;21031;-44
2022/01/13 03:00:17;;;;;;;13.28;8.63;;;-1.60;81.50;;;;;;1914816;75;21082;-45
2022/01/13 03:02:47;;;;;;;13.60;8.50;;;-1.60;80.60;;;;;;1914888;75;21028;-44
2022/01/13 03:05:17;;;;;;;11.55;7.85;;;-1.60;81.80;;;;;;1914994;75;21087;-46
2022/01/13 03:07:46;;;;;;;14.60;9.38;;;-1.50;82.20;;;;;;1914917;75;21004;-45
2022/01/13 03:10:15;;;;;;;17.73;10.35;;;-1.40;83.30;;;;;;1914877;75;21113;-45
2022/01/13 03:12:45;;;;;;;7.60;5.80;;;-1.20;82.70;;;;;;1914889;75;21110;-44
2022/01/13 03:15:15;;;;;;;6.12;3.37;;;-1.20;81.30;;;;;;1914868;75;21185;-44
2022/01/13 03:17:44;;;;;;;15.25;8.75;;;-1.20;79.40;;;;;;1914868;75;21106;-44
2022/01/13 03:20:14;;;;;;;14.33;9.58;;;-1.30;80.70;;;;;;1914908;75;21028;-44
2022/01/13 03:22:43;;;;;;;10.50;7.67;;;-1.40;79.20;;;;;;1914914;75;21028;-44
2022/01/13 03:25:14;;;;;;;10.63;6.45;;;-1.50;79.30;;;;;;1914885;75;21024;-44
2022/01/13 03:27:44;;;;;;;9.70;6.53;;;-1.60;77.50;;;;;;1914928;75;21454;-44
2022/01/13 03:30:14;;;;;;;13.45;8.65;;;-1.80;78.20;;;;;;1914863;75;21086;-44
2022/01/13 03:32:44;;;;;;;12.00;8.55;;;-1.90;80.50;;;;;;1914848;75;21029;-44
2022/01/13 03:35:13;;;;;;;8.85;6.12;;;-1.90;80.80;;;;;;1915059;75;21008;-45
2022/01/13 03:37:42;;;;;;;11.40;6.58;;;-1.90;79.60;;;;;;1914857;75;21056;-44
2022/01/13 03:40:13;;;;;;;4.05;3.70;;;-1.90;80.70;;;;;;1914719;74;21036;-44
2022/01/13 03:42:42;;;;;;;6.33;4.67;;;-2.00;79.00;;;;;;1914871;75;21028;-44
2022/01/13 03:45:12;;;;;;;10.72;6.28;;;-2.10;78.80;;;;;;1914827;75;21101;-45
2022/01/13 03:47:41;;;;;;;5.87;3.67;;;-2.20;78.80;;;;;;1914877;75;21118;-46
2022/01/13 03:50:10;;;;;;;15.10;8.73;;;-2.30;78.60;;;;;;1914955;75;21106;-44
2022/01/13 03:52:51;;;;;;;4.50;3.95;;;-2.40;80.10;;;;;;1914865;75;21005;-44
2022/01/13 03:55:41;;;;;;;12.28;6.62;;;-2.40;79.00;;;;;;1890948;75;21532;-44
2022/01/13 03:58:33;;;;;;;7.97;4.25;;;-2.50;79.00;;;;;;1914858;75;21016;-44
2022/01/13 04:01:23;;;;;;;11.48;6.30;;;-2.50;80.50;;;;;;1914979;75;21169;-44
2022/01/13 04:03:53;;;;;;;6.97;4.70;;;-2.40;81.20;;;;;;1914798;75;21021;-45
2022/01/13 04:06:24;;;;;;;8.98;5.08;;;-2.40;79.60;;;;;;1914838;75;21009;-44
2022/01/13 04:08:55;;;;;;;10.28;5.00;;;-2.40;79.60;;;;;;1914949;75;21052;-44
2022/01/13 04:11:31;;;;;;;7.05;5.83;;;-2.50;79.40;;;;;;1914984;75;21021;-44
2022/01/13 04:14:02;;;;;;;11.60;6.72;;;-2.60;80.00;;;;;;1914800;75;21047;-44
2022/01/13 04:16:36;;;;;;;13.10;7.20;;;-2.50;80.70;;;;;;1914932;75;21106;-45
2022/01/13 04:19:07;;;;;;;13.72;9.93;;;-2.50;80.60;;;;;;1914903;75;21036;-44
2022/01/13 04:21:38;;;;;;;7.83;4.72;;;-2.40;81.00;;;;;;1914888;75;21032;-44
2022/01/13 04:24:11;;;;;;;10.80;6.42;;;-2.30;81.60;;;;;;1914824;74;21501;-45
2022/01/13 04:26:44;;;;;;;3.77;3.15;;;-2.30;80.50;;;;;;1915023;75;21102;-44
2022/01/13 04:31:46;;;;;;;12.80;6.37;;;-2.30;79.40;;;;;;1914961;75;21036;-45
2022/01/13 04:34:15;;;;;;;21.45;9.90;;;-2.40;77.90;;;;;;1914773;75;21004;-44
2022/01/13 04:36:45;;;;;;;20.65;12.10;;;-2.40;80.90;;;;;;1914849;75;21106;-44
2022/01/13 04:39:16;;;;;;;13.95;8.15;;;-2.40;80.20;;;;;;1914812;75;21044;-44
2022/01/13 04:41:47;;;;;;;14.55;7.87;;;-2.30;81.30;;;;;;1922674;74;21043;-45
2022/01/13 04:44:18;;;;;;;8.20;6.37;;;-2.30;80.60;;;;;;1931276;74;21051;-46
2022/01/13 04:46:49;;;;;;;13.25;5.92;;;-2.20;81.50;;;;;;1931204;74;21140;-45
2022/01/13 04:49:19;;;;;;;13.58;8.58;;;-2.20;78.80;;;;;;1931315;74;21164;-46
2022/01/13 04:51:50;;;;;;;14.07;9.23;;;-2.20;81.20;;;;;;1931219;74;21043;-46
2022/01/13 04:54:20;;;;;;;12.65;7.85;;;-2.20;79.80;;;;;;1931182;74;21117;-46
2022/01/13 04:59:20;;;;;;;5.62;3.90;;;-2.10;81.30;;;;;;1930978;74;21019;-45
2022/01/13 05:01:50;;;;;;;16.37;8.75;;;-2.20;77.70;;;;;;1931076;74;21055;-45
2022/01/13 05:04:21;;;;;;;12.98;7.25;;;-2.20;80.90;;;;;;1931020;74;21039;-45
2022/01/13 05:06:50;;;;;;;9.95;7.28;;;-2.20;81.10;;;;;;1931062;74;21555;-44
2022/01/13 05:09:19;;;;;;;13.08;8.93;;;-2.10;81.20;;;;;;1931037;74;21019;-44
2022/01/13 05:11:48;;;;;;;11.35;7.15;;;-2.10;79.70;;;;;;1931067;74;21031;-45
2022/01/13 05:14:18;;;;;;;12.90;7.90;;;-2.20;78.40;;;;;;1931013;74;21200;-46
2022/01/13 05:16:55;;;;;;;8.53;6.62;;;-2.30;80.20;;;;;;1931139;74;21063;-45
2022/01/13 05:19:24;;;;;;;7.28;6.12;;;-2.30;80.10;;;;;;1929682;74;21035;-45
2022/01/13 05:24:28;;;;;;;11.22;6.75;;;-2.40;79.20;;;;;;1931271;74;21114;-45
2022/01/13 05:26:58;;;;;;;5.53;4.40;;;-2.50;79.40;;;;;;1931056;74;21079;-44
2022/01/13 05:29:27;;;;;;;21.50;8.85;;;-2.50;79.80;;;;;;1930949;74;21062;-45
2022/01/13 05:31:56;;;;;;;14.07;8.55;;;-2.50;81.60;;;;;;1931062;74;21032;-45
2022/01/13 05:34:26;;;;;;;9.70;6.92;;;-2.40;82.00;;;;;;1931030;74;21016;-44
2022/01/13 05:36:55;;;;;;;14.83;9.25;;;-2.30;82.60;;;;;;1931051;74;21097;-45
2022/01/13 05:39:24;;;;;;;12.55;8.13;;;-2.20;82.10;;;;;;1930983;74;21113;-44
2022/01/13 05:41:54;;;;;;;9.25;5.87;;;-2.10;80.30;;;;;;1931084;74;21063;-45
2022/01/13 05:44:23;;;;;;;13.58;7.87;;;-2.10;81.60;;;;;;1931112;74;21097;-45
2022/01/13 05:46:53;;;;;;;8.20;6.00;;;-2.00;82.00;;;;;;1931053;74;21051;-44
2022/01/13 05:49:22;;;;;;;11.15;8.20;;;-1.90;82.80;;;;;;1930998;74;21007;-45
2022/01/13 05:51:52;;;;;;;11.05;6.37;;;-1.80;82.20;;;;;;1931136;74;21040;-45
2022/01/13 05:54:21;;;;;;;14.13;8.45;;;-1.70;82.90;;;;;;1930952;74;21097;-45
2022/01/13 05:56:50;;;;;;;14.33;8.63;;;-1.60;81.60;;;;;;1930966;74;21023;-45
2022/01/13 05:59:21;;;;;;;6.78;5.05;;;-1.60;81.00;;;;;;1930990;74;21101;-44
2022/01/13 06:01:51;;;;;;;9.60;6.78;;;-1.70;80.10;;;;;;1931105;74;21449;-44
2022/01/13 06:04:20;;;;;;;6.33;4.90;;;-1.70;79.60;;;;;;1931000;74;21109;-44
2022/01/13 06:06:50;;;;;;;13.43;8.50;;;-1.80;79.60;;;;;;1931090;74;21023;-45
2022/01/13 06:09:19;;;;;;;12.28;7.35;;;-1.90;81.30;;;;;;1931004;74;21024;-44
2022/01/13 06:12:01;;;;;;;10.08;5.72;;;-2.00;81.80;;;;;;1931099;74;21156;-44
2022/01/13 06:14:28;;;;;;;14.55;8.68;;;-1.90;80.90;;;;;;1930703;74;21159;-43
2022/01/13 06:16:58;;;;;;;11.15;7.22;;;-1.90;81.50;;;;;;1931040;74;21074;-44
2022/01/13 06:19:27;;;;;;;10.43;5.22;;;-1.90;82.00;;;;;;1930936;74;21059;-44
2022/01/13 06:21:56;;;;;;;12.37;8.10;;;-1.80;81.60;;;;;;1931120;74;21105;-44
2022/01/13 06:24:26;;;;;;;12.93;8.08;;;-1.80;82.20;;;;;;1931076;74;21113;-44
2022/01/13 06:26:55;;;;;;;8.23;6.10;;;-1.60;82.60;;;;;;1931144;74;21052;-44
2022/01/13 06:29:25;;;;;;;7.28;5.45;;;-1.60;80.10;;;;;;1931081;74;21036;-45
2022/01/13 06:31:54;;;;;;;13.30;7.55;;;-1.50;80.00;;;;;;1930985;74;21028;-43
2022/01/13 06:34:24;;;;;;;11.97;7.85;;;-1.60;81.20;;;;;;1931076;74;21450;-43
2022/01/13 06:36:53;;;;;;;14.43;5.80;;;-1.60;81.10;;;;;;1931103;74;21113;-44
2022/01/13 06:39:22;;;;;;;13.05;8.23;;;-1.60;80.50;;;;;;1930974;74;21028;-44
2022/01/13 06:41:52;;;;;;;11.30;6.75;;;-1.50;82.10;;;;;;1931005;74;21031;-43
2022/01/13 06:44:22;;;;;;;13.15;8.15;;;-1.40;81.60;;;;;;1914511;75;21154;-44
2022/01/13 06:46:51;;;;;;;8.03;5.15;;;-1.30;81.30;;;;;;1914596;75;21121;-43
2022/01/13 06:49:21;;;;;;;9.20;7.53;;;-1.20;79.70;;;;;;1914634;75;21028;-45
2022/01/13 06:51:50;;;;;;;15.43;8.85;;;-1.20;81.40;;;;;;1914608;75;21067;-44
2022/01/13 06:54:20;;;;;;;10.80;8.28;;;-1.20;80.80;;;;;;1914598;75;21109;-45
2022/01/13 06:56:49;;;;;;;11.25;7.60;;;-1.20;80.00;;;;;;1914615;75;21028;-44
2022/01/13 06:59:19;;;;;;;13.88;9.00;;;-1.10;81.50;;;;;;1914655;75;21008;-44
2022/01/13 07:01:49;;;;;;;16.93;9.30;;;-1.00;81.20;;;;;;1914681;75;21043;-43
2022/01/13 07:04:18;;;;;;;10.75;5.87;;;-0.90;81.70;;;;;;1914631;75;21157;-44
2022/01/13 07:06:48;;;;;;;10.78;7.40;;;-0.90;78.30;;;;;;1914621;75;21099;-43
2022/01/13 07:09:17;;;;;;;10.50;7.05;;;-0.80;80.90;;;;;;1914616;75;21169;-44
2022/01/13 07:11:47;;;;;;;13.32;8.23;;;-0.80;80.60;;;;;;1914618;75;21028;-44
2022/01/13 07:14:17;;;;;;;13.20;7.90;;;-0.80;82.00;;;;;;1914539;75;21028;-43
2022/01/13 07:16:47;;;;;;;19.40;9.30;;;-0.60;81.50;;;;;;1913072;75;21028;-42
2022/01/13 07:19:18;;;;;;;15.00;8.73;;;-0.50;82.20;;;;;;1913885;75;21028;-43
2022/01/13 07:21:47;;;;;;;12.18;8.88;;;-0.40;81.60;;;;;;1914120;75;21024;-42
2022/01/13 07:24:17;;;;;;;16.40;9.35;;;-0.20;82.40;;;;;;1913800;75;21033;-44
2022/01/13 07:26:47;;;;;;;18.65;9.68;;;0.00;82.20;;;;;;1914100;75;21032;-43
2022/01/13 07:29:16;;;;;;;15.38;8.73;;;0.10;80.00;;;;;;1915621;75;21023;-42
2022/01/13 07:31:47;;;;;;;17.37;9.78;;;0.10;79.40;;;;;;1916711;75;21096;-44
2022/01/13 07:34:16;;;;;;;13.20;9.20;;;0.10;80.70;;;;;;1916968;75;21070;-44
2022/01/13 07:36:45;;;;;;;13.85;8.35;;;0.10;80.90;;;;;;1917079;74;21062;-45
2022/01/13 07:39:15;;;;;;;15.35;9.53;;;0.20;80.80;;;;;;1916866;73;21070;-45
2022/01/13 07:41:45;;;;;;;12.28;8.83;;;0.30;81.60;;;;;;1917038;74;21159;-45
2022/01/13 07:44:18;;;;;;;14.13;9.95;;;0.40;81.50;;;;;;1916570;74;21031;-45
2022/01/13 07:46:47;;;;;;;11.28;7.22;;;0.50;80.00;;;;;;1916873;74;20988;-45
2022/01/13 07:49:16;;;;;;;14.65;8.28;;;0.50;80.00;;;;;;1916974;75;21022;-45
2022/01/13 07:51:45;;;;;;;12.70;8.93;;;0.60;81.00;;;;;;1916872;75;21075;-45
2022/01/13 07:54:15;;;;;;;19.10;10.15;;;0.60;78.20;;;;;;1916913;75;21063;-45
2022/01/13 07:56:44;;;;;;;13.75;8.55;;;0.50;79.60;;;;;;1917013;75;21039;-46
2022/01/13 07:59:14;;;;;;;28.62;13.13;;;0.50;76.30;;;;;;1916719;75;21039;-44
2022/01/13 08:01:44;;;;;;;15.50;7.92;;;0.40;79.50;;;;;;1916974;75;21113;-45
2022/01/13 08:04:13;;;;;;;17.85;9.45;;;0.50;78.90;;;;;;1917010;75;21082;-44
2022/01/13 08:06:42;;;;;;;12.28;7.95;;;0.40;78.90;;;;;;1916857;75;21396;-45
2022/01/13 08:09:12;;;;;;;15.38;9.30;;;0.40;78.50;;;;;;1916855;75;21023;-44
2022/01/13 08:11:41;;;;;;;13.10;9.13;;;0.50;79.70;;;;;;1916851;75;21078;-44
2022/01/13 08:14:11;;;;;;;18.15;10.40;;;0.50;80.10;;;;;;1916783;75;21074;-45
2022/01/13 08:16:43;;;;;;;15.30;8.40;;;0.60;80.80;;;;;;1916976;75;21058;-45
2022/01/13 08:21:58;;;;;;;19.52;10.55;;;0.70;79.60;;;;;;1916967;75;21035;-45
2022/01/13 08:24:28;;;;;;;19.62;12.78;;;0.60;79.10;;;;;;1916911;75;21078;-45
2022/01/13 08:26:57;;;;;;;15.63;9.88;;;0.50;77.40;;;;;;1916898;75;21070;-45
2022/01/13 08:29:29;;;;;;;19.00;10.43;;;0.40;77.00;;;;;;1916848;75;21500;-45
2022/01/13 08:31:58;;;;;;;16.25;9.95;;;0.40;79.90;;;;;;1916986;75;21156;-43
2022/01/13 08:34:27;;;;;;;17.85;10.38;;;0.40;80.00;;;;;;1916839;75;21226;-44
2022/01/13 08:36:57;;;;;;;16.17;11.05;;;0.50;80.70;;;;;;1916781;75;21015;-44
2022/01/13 08:39:26;;;;;;;11.65;9.48;;;0.70;79.50;;;;;;1916830;74;21086;-44
2022/01/13 08:41:55;;;;;;;17.05;10.13;;;0.70;79.90;;;;;;1917102;75;21078;-43
2022/01/13 08:44:24;;;;;;;24.77;10.65;;;0.80;80.40;;;;;;1916858;74;21090;-44
2022/01/13 08:46:54;;;;;;;16.65;10.43;;;0.90;80.70;;;;;;1916939;73;21053;-45
2022/01/13 08:49:23;;;;;;;20.68;10.63;;;1.10;80.70;;;;;;1916969;75;21042;-44
2022/01/13 08:51:54;;;;;;;26.77;12.13;;;1.30;80.00;;;;;;1917200;75;21039;-45
2022/01/13 08:54:24;;;;;;;18.42;11.53;;;1.30;79.20;;;;;;1916830;75;21024;-45
2022/01/13 08:56:53;;;;;;;16.45;9.63;;;1.40;79.80;;;;;;1916953;75;21023;-44
2022/01/13 08:59:23;;;;;;;16.93;9.55;;;1.50;79.70;;;;;;1916893;73;21096;-44
2022/01/13 09:01:53;;;;;;;16.67;9.28;;;1.50;79.30;;;;;;1916849;75;21102;-45
2022/01/13 09:04:23;;;;;;;14.15;9.03;;;1.60;79.60;;;;;;1916929;75;21019;-46
2022/01/13 09:06:52;;;;;;;18.25;8.88;;;1.70;78.60;;;;;;1916825;75;21019;-46
2022/01/13 09:09:21;;;;;;;18.62;9.13;;;1.60;72.80;;;;;;1917010;75;21015;-46
2022/01/13 09:11:51;;;;;;;15.40;9.60;;;1.40;75.20;;;;;;1917087;75;21015;-44
2022/01/13 09:14:25;;;;;;;10.20;6.28;;;1.20;75.50;;;;;;1916754;75;21163;-46
2022/01/13 09:16:51;;;;;;;12.78;7.58;;;1.00;75.50;;;;;;1916592;74;21109;-45
2022/01/13 09:19:20;;;;;;;7.55;5.37;;;0.80;73.50;;;;;;1916738;75;21078;-45
2022/01/13 09:21:52;;;;;;;4.50;3.30;;;0.50;72.50;;;;;;1916874;75;21136;-45
2022/01/13 09:24:21;;;;;;;5.95;4.80;;;0.30;70.60;;;;;;1916933;75;21516;-45
2022/01/13 09:26:51;;;;;;;5.08;2.85;;;0.00;72.30;;;;;;1916744;75;21093;-45
2022/01/13 09:29:20;;;;;;;4.25;3.85;;;-0.30;71.80;;;;;;1916955;75;21019;-44
2022/01/13 09:31:50;;;;;;;5.35;3.37;;;-0.50;72.10;;;;;;1916877;73;21064;-45
2022/01/13 09:34:19;;;;;;;3.40;2.83;;;-0.60;72.30;;;;;;1916732;73;21094;-44
2022/01/13 09:36:48;;;;;;;3.47;2.77;;;-0.80;72.50;;;;;;1917011;74;21446;-45
2022/01/13 09:39:17;;;;;;;4.70;3.40;;;-0.90;72.00;;;;;;1916839;75;20995;-45
2022/01/13 09:41:49;;;;;;;3.83;2.87;;;-0.90;72.90;;;;;;1916968;75;21175;-45
2022/01/13 09:44:18;;;;;;;3.80;3.25;;;-0.90;72.60;;;;;;1919972;74;21101;-46
2022/01/13 09:46:47;;;;;;;8.95;5.28;;;-0.90;73.10;;;;;;1930433;74;21070;-45
2022/01/13 09:49:17;;;;;;;7.28;4.70;;;-0.70;72.50;;;;;;1930338;74;21015;-45
2022/01/13 09:51:46;;;;;;;9.30;6.50;;;-0.60;71.90;;;;;;1930365;74;21088;-46
2022/01/13 09:54:16;;;;;;;13.60;5.15;;;-0.50;73.70;;;;;;1930396;74;21131;-46
2022/01/13 09:56:45;;;;;;;10.38;5.70;;;-0.50;71.20;;;;;;1930318;74;21019;-47
2022/01/13 09:59:15;;;;;;;8.13;5.80;;;-0.50;73.50;;;;;;1930344;74;21010;-45
2022/01/13 10:01:44;;;;;;;5.45;4.33;;;-0.50;72.90;;;;;;1930348;74;21010;-44
2022/01/13 10:04:13;;;;;;;6.35;5.00;;;-0.50;72.20;;;;;;1923913;74;21003;-45
2022/01/13 10:06:47;;;;;;;9.30;6.03;;;-0.60;73.00;;;;;;1923852;74;21051;-49
2022/01/13 10:09:16;;;;;;;14.25;8.43;;;-0.60;72.80;;;;;;1923987;74;21088;-46
2022/01/13 10:11:54;;;;;;;11.93;7.15;;;-0.60;74.90;;;;;;1923932;74;21102;-45
2022/01/13 10:17:04;;;;;;;11.40;7.12;;;-0.50;74.80;;;;;;1923952;74;21097;-44
2022/01/13 10:19:45;;;;;;;11.85;5.47;;;-0.50;74.10;;;;;;1923930;74;21143;-45
2022/01/13 10:22:18;;;;;;;7.70;6.08;;;-0.40;74.60;;;;;;1923934;74;21066;-46
2022/01/13 10:24:50;;;;;;;5.80;3.67;;;-0.30;76.40;;;;;;1924150;74;21543;-46
2022/01/13 10:27:22;;;;;;;9.45;5.45;;;-0.10;73.80;;;;;;1923789;74;21478;-45
2022/01/13 10:29:53;;;;;;;9.68;4.72;;;0.00;72.20;;;;;;1923310;74;21520;-45
2022/01/13 10:32:36;;;;;;;5.90;3.47;;;0.20;74.00;;;;;;1923986;74;20998;-45
2022/01/13 10:35:10;;;;;;;8.93;5.22;;;0.30;72.20;;;;;;1923762;74;21061;-45
2022/01/13 10:37:56;;;;;;;8.60;4.83;;;0.40;70.90;;;;;;1924094;74;21590;-45
2022/01/13 10:40:27;;;;;;;;;;;0.30;71.00;;;;;;1926928;74;21042;-46
2022/01/13 10:45:50;;;;;;;2.12;1.98;;;0.00;69.40;;;;;;1923792;74;21124;-45
2022/01/13 10:48:28;;;;;;;7.42;4.30;;;-0.10;67.30;;;;;;1923883;74;21077;-47
2022/01/13 10:51:02;;;;;;;4.83;3.40;;;-0.30;69.50;;;;;;1924011;74;21015;-46
2022/01/13 10:53:33;;;;;;;4.87;3.30;;;-0.50;69.80;;;;;;1924021;74;21034;-46
2022/01/13 10:56:05;;;;;;;5.05;3.17;;;-0.70;70.00;;;;;;1923889;74;21098;-45
2022/01/13 10:58:37;;;;;;;6.28;3.35;;;-0.80;69.70;;;;;;1923796;74;21092;-48
2022/01/13 11:01:07;;;;;;;5.37;3.30;;;-0.90;69.30;;;;;;1923699;74;21468;-46
2022/01/13 11:03:39;;;;;;;7.28;3.40;;;-0.90;70.30;;;;;;1924752;74;21023;-46
2022/01/13 11:06:10;;;;;;;4.33;2.55;;;-1.00;71.30;;;;;;1924113;74;21456;-46
2022/01/13 11:08:47;;;;;;;7.58;3.52;;;-1.00;70.50;;;;;;1924750;74;21089;-46
2022/01/13 11:11:28;;;;;;;4.10;3.52;;;-0.90;71.60;;;;;;1924832;74;21096;-44
2022/01/13 11:14:14;;;;;;;3.08;2.33;;;-0.90;70.30;;;;;;1924815;74;21074;-45
2022/01/13 11:16:40;;;;;;;7.53;4.10;;;-0.90;70.90;;;;;;1924310;74;21185;-44
2022/01/13 11:19:10;;;;;;;7.03;4.75;;;-1.00;69.90;;;;;;1924699;74;20999;-45
2022/01/13 11:21:40;;;;;;;3.90;2.37;;;-1.10;70.70;;;;;;1924662;74;21123;-44
2022/01/13 11:24:09;;;;;;;4.80;3.60;;;-1.20;70.70;;;;;;1924747;74;21089;-43
2022/01/13 11:26:39;;;;;;;6.83;4.62;;;-1.20;71.40;;;;;;1924683;74;21014;-45
2022/01/13 11:29:09;;;;;;;13.00;4.55;;;-1.20;72.60;;;;;;1924662;74;21018;-44
2022/01/13 11:31:40;;;;;;;8.70;4.62;;;-1.20;71.60;;;;;;1924713;74;21026;-44
2022/01/13 11:34:09;;;;;;;7.45;3.65;;;-1.20;72.80;;;;;;1924792;74;21014;-44
2022/01/13 11:36:39;;;;;;;9.58;5.12;;;-1.10;73.20;;;;;;1924645;74;21088;-44
2022/01/13 11:39:09;;;;;;;6.55;3.85;;;-1.10;73.40;;;;;;1924717;74;21042;-45
2022/01/13 11:42:05;;;;;;;7.42;4.40;;;-1.00;71.90;;;;;;1924573;74;21022;-44
2022/01/13 11:44:35;;;;;;;9.00;4.40;;;-1.10;72.60;;;;;;1916653;74;21492;-44
2022/01/13 11:47:08;;;;;;;8.63;4.60;;;-1.20;70.80;;;;;;1907567;74;21059;-43
2022/01/13 11:49:45;;;;;;;8.10;5.40;;;-1.40;71.90;;;;;;1904459;74;21004;-43
2022/01/13 11:52:29;;;;;;;11.80;5.97;;;-1.50;71.80;;;;;;1905312;74;21089;-44
2022/01/13 11:54:47;;;;;;;4.10;3.25;;;-1.60;71.70;;;;;;1904142;74;20992;-43
2022/01/13 11:57:28;;;;;;;6.58;3.95;;;-1.70;73.00;;;;;;1905275;75;21036;-44
2022/01/13 12:00:00;;;;;;;6.45;4.33;;;-1.80;72.70;;;;;;1905257;74;21023;-44
2022/01/13 12:02:32;;;;;;;4.40;3.83;;;-1.80;73.70;;;;;;1905347;75;21531;-44
2022/01/13 12:05:04;;;;;;;3.42;3.02;;;-1.90;73.40;;;;;;1905388;75;21093;-43
2022/01/13 12:07:47;;;;;;;6.87;3.27;;;-1.90;73.10;;;;;;1895000;75;21109;-43
2022/01/13 12:10:33;;;;;;;7.00;4.83;;;-1.90;73.70;;;;;;1903877;74;21019;-43
2022/01/13 12:13:07;;;;;;;3.95;3.22;;;-1.90;74.20;;;;;;1890727;74;21023;-43
2022/01/13 12:15:39;;;;;;;9.00;4.15;;;-2.00;74.60;;;;;;1899269;74;21109;-43
2022/01/13 12:18:09;;;;;;;6.20;3.05;;;-2.10;74.00;;;;;;1904355;74;21461;-43
2022/01/13 12:20:56;;;;;;;6.92;4.80;;;-2.10;74.50;;;;;;1905341;74;21019;-43
2022/01/13 12:23:40;;;;;;;6.55;4.25;;;-2.10;74.60;;;;;;1904818;74;21039;-44
2022/01/13 12:26:21;;;;;;;11.48;7.92;;;-2.10;74.50;;;;;;1905255;75;21011;-43
2022/01/13 12:29:21;;;;;;;10.23;4.37;;;-2.10;74.40;;;;;;1811774;78;21129;-43
2022/01/13 12:31:55;;;;;;;7.30;4.05;;;-2.10;73.30;;;;;;1796815;79;21517;-43
2022/01/13 12:34:30;;;;;;;9.68;3.83;;;-2.20;73.30;;;;;;1833146;78;21559;-43
2022/01/13 12:37:02;;;;;;;4.08;2.52;;;-2.10;73.50;;;;;;1870272;74;21097;-43
2022/01/13 12:39:33;;;;;;;5.72;3.40;;;-2.10;72.90;;;;;;1901130;74;21114;-44
2022/01/13 12:42:05;;;;;;;7.08;3.62;;;-2.10;72.40;;;;;;1905200;75;21078;-44
2022/01/13 12:47:23;;;;;;;1.72;1.60;;;-2.10;73.00;;;;;;1905266;75;21059;-43
2022/01/13 12:49:52;;;;;;;8.08;4.58;;;-2.10;72.40;;;;;;1905446;75;21078;-44
2022/01/13 12:52:24;;;;;;;6.97;5.12;;;-2.10;72.00;;;;;;1905317;75;21063;-45
2022/01/13 12:54:55;;;;;;;7.37;5.05;;;-2.10;71.20;;;;;;1905298;75;21101;-44
2022/01/13 12:57:24;;;;;;;5.15;3.52;;;-2.20;70.30;;;;;;1905422;75;21082;-45
2022/01/13 12:59:58;;;;;;;6.35;3.47;;;-2.20;70.10;;;;;;1905155;75;21075;-45
2022/01/13 13:02:28;;;;;;;7.30;5.07;;;-2.20;69.90;;;;;;1905654;75;21027;-45
2022/01/13 13:04:58;;;;;;;7.75;6.00;;;-2.20;70.60;;;;;;1905308;75;21077;-44
2022/01/13 13:07:27;;;;;;;4.30;3.37;;;-2.20;71.80;;;;;;1905207;74;21000;-45
2022/01/13 13:10:09;;;;;;;8.18;6.08;;;-2.20;70.60;;;;;;1905213;75;21035;-44
2022/01/13 13:12:40;;;;;;;7.17;4.55;;;-2.20;71.30;;;;;;1905431;74;21155;-44
2022/01/13 13:17:51;;;;;;;5.25;4.55;;;-2.30;72.50;;;;;;1905343;75;21039;-43
2022/01/13 13:20:31;;;;;;;16.10;5.85;;;-2.30;72.40;;;;;;1905244;75;21027;-44
2022/01/13 13:23:03;;;;;;;8.68;5.58;;;-2.30;72.10;;;;;;1905193;74;21015;-44
2022/01/13 13:25:38;;;;;;;8.43;4.40;;;-2.40;71.60;;;;;;1905308;75;21066;-44
2022/01/13 13:28:27;;;;;;;7.12;3.42;;;-2.40;72.60;;;;;;1905101;74;21473;-44
2022/01/13 13:30:59;;;;;;;8.93;5.72;;;-2.50;72.90;;;;;;1905253;75;21051;-44
2022/01/13 13:33:37;;;;;;;3.85;2.75;;;-2.50;73.00;;;;;;1905366;75;21035;-44
2022/01/13 13:36:09;;;;;;;12.35;8.00;;;-2.60;72.10;;;;;;1905222;74;20992;-44
2022/01/13 13:38:57;;;;;;;12.15;5.83;;;-2.60;73.40;;;;;;1905196;75;21023;-43